sensor_id;sensor_type;location;lat;lon;timestamp;P1;durP1;ratioP1;P2;durP2;ratioP2
70535;SDS011;58089;48.752;11.338;2023-12-20T00:00:34;9.40;;;4.80;;
70535;SDS011;58089;48.752;11.338;2023-12-20T00:03:02;9.25;;;5.20;;
70535;SDS011;58089;48.752;11.338;2023-12-20T00:05:27;9.83;;;5.23;;
70535;SDS011;58089;48.752;11.338;2023-12-20T00:07:53;8.80;;;4.67;;
70535;SDS011;58089;48.752;11.338;2023-12-20T00:10:18;9.53;;;4.50;;
70535;SDS011;58089;48.752;11.338;2023-12-20T00:12:44;8.57;;;4.07;;
70535;SDS011;58089;48.752;11.338;2023-12-20T00:15:10;9.60;;;4.75;;
70535;SDS011;58089;48.752;11.338;2023-12-20T00:17:36;8.90;;;4.10;;
70535;SDS011;58089;48.752;11.338;2023-12-20T00:20:01;7.70;;;4.10;;
70535;SDS011;58089;48.752;11.338;2023-12-20T00:22:27;8.57;;;4.07;;
70535;SDS011;58089;48.752;11.338;2023-12-20T00:24:52;8.17;;;3.80;;
70535;SDS011;58089;48.752;11.338;2023-12-20T00:27:17;7.60;;;3.95;;
70535;SDS011;58089;48.752;11.338;2023-12-20T00:29:43;8.07;;;4.10;;
70535;SDS011;58089;48.752;11.338;2023-12-20T00:32:12;8.17;;;4.00;;
70535;SDS011;58089;48.752;11.338;2023-12-20T00:34:38;8.27;;;3.80;;
70535;SDS011;58089;48.752;11.338;2023-12-20T00:37:03;8.00;;;3.23;;
70535;SDS011;58089;48.752;11.338;2023-12-20T00:39:29;9.03;;;4.30;;
70535;SDS011;58089;48.752;11.338;2023-12-20T00:41:54;7.17;;;3.20;;
70535;SDS011;58089;48.752;11.338;2023-12-20T00:44:19;8.07;;;4.30;;
70535;SDS011;58089;48.752;11.338;2023-12-20T00:46:44;8.13;;;3.87;;
70535;SDS011;58089;48.752;11.338;2023-12-20T00:49:10;8.53;;;3.97;;
70535;SDS011;58089;48.752;11.338;2023-12-20T00:51:35;8.48;;;4.50;;
70535;SDS011;58089;48.752;11.338;2023-12-20T00:54:00;8.60;;;4.63;;
70535;SDS011;58089;48.752;11.338;2023-12-20T00:56:26;7.90;;;3.97;;
70535;SDS011;58089;48.752;11.338;2023-12-20T00:58:51;8.83;;;3.97;;
70535;SDS011;58089;48.752;11.338;2023-12-20T01:01:16;6.93;;;3.87;;
70535;SDS011;58089;48.752;11.338;2023-12-20T01:03:42;7.63;;;3.67;;
70535;SDS011;58089;48.752;11.338;2023-12-20T01:06:07;7.93;;;3.50;;
70535;SDS011;58089;48.752;11.338;2023-12-20T01:08:32;8.43;;;4.03;;
70535;SDS011;58089;48.752;11.338;2023-12-20T01:11:00;7.43;;;3.70;;
70535;SDS011;58089;48.752;11.338;2023-12-20T01:13:25;9.60;;;3.60;;
70535;SDS011;58089;48.752;11.338;2023-12-20T01:15:50;9.87;;;3.83;;
70535;SDS011;58089;48.752;11.338;2023-12-20T01:18:16;7.30;;;3.13;;
70535;SDS011;58089;48.752;11.338;2023-12-20T01:20:41;7.83;;;3.20;;
70535;SDS011;58089;48.752;11.338;2023-12-20T01:23:07;7.10;;;3.53;;
70535;SDS011;58089;48.752;11.338;2023-12-20T01:25:32;8.10;;;3.60;;
70535;SDS011;58089;48.752;11.338;2023-12-20T01:27:58;6.73;;;3.30;;
70535;SDS011;58089;48.752;11.338;2023-12-20T01:30:23;8.40;;;3.33;;
70535;SDS011;58089;48.752;11.338;2023-12-20T01:32:49;6.18;;;3.13;;
70535;SDS011;58089;48.752;11.338;2023-12-20T01:35:14;8.80;;;3.80;;
70535;SDS011;58089;48.752;11.338;2023-12-20T01:37:40;7.07;;;3.40;;
70535;SDS011;58089;48.752;11.338;2023-12-20T01:40:05;7.20;;;3.70;;
70535;SDS011;58089;48.752;11.338;2023-12-20T01:42:31;7.75;;;3.72;;
70535;SDS011;58089;48.752;11.338;2023-12-20T01:44:56;8.30;;;3.57;;
70535;SDS011;58089;48.752;11.338;2023-12-20T01:47:21;9.20;;;3.90;;
70535;SDS011;58089;48.752;11.338;2023-12-20T01:49:47;8.73;;;3.40;;
70535;SDS011;58089;48.752;11.338;2023-12-20T01:52:13;7.80;;;3.47;;
70535;SDS011;58089;48.752;11.338;2023-12-20T01:54:38;7.00;;;3.53;;
70535;SDS011;58089;48.752;11.338;2023-12-20T01:57:05;7.40;;;3.58;;
70535;SDS011;58089;48.752;11.338;2023-12-20T01:59:31;7.20;;;3.33;;
70535;SDS011;58089;48.752;11.338;2023-12-20T02:01:57;7.07;;;3.20;;
70535;SDS011;58089;48.752;11.338;2023-12-20T02:04:22;7.13;;;3.33;;
70535;SDS011;58089;48.752;11.338;2023-12-20T02:06:48;5.77;;;2.77;;
70535;SDS011;58089;48.752;11.338;2023-12-20T02:09:14;7.00;;;2.90;;
70535;SDS011;58089;48.752;11.338;2023-12-20T02:11:40;6.57;;;2.87;;
70535;SDS011;58089;48.752;11.338;2023-12-20T02:14:05;7.53;;;3.17;;
70535;SDS011;58089;48.752;11.338;2023-12-20T02:16:30;6.33;;;2.80;;
70535;SDS011;58089;48.752;11.338;2023-12-20T02:18:56;6.77;;;2.50;;
70535;SDS011;58089;48.752;11.338;2023-12-20T02:21:25;7.77;;;2.97;;
70535;SDS011;58089;48.752;11.338;2023-12-20T02:23:50;6.93;;;2.85;;
70535;SDS011;58089;48.752;11.338;2023-12-20T02:26:16;6.83;;;2.47;;
70535;SDS011;58089;48.752;11.338;2023-12-20T02:28:41;7.67;;;2.83;;
70535;SDS011;58089;48.752;11.338;2023-12-20T02:31:06;7.57;;;2.70;;
70535;SDS011;58089;48.752;11.338;2023-12-20T02:33:32;6.37;;;2.60;;
70535;SDS011;58089;48.752;11.338;2023-12-20T02:35:57;7.10;;;2.50;;
70535;SDS011;58089;48.752;11.338;2023-12-20T02:38:22;5.90;;;2.50;;
70535;SDS011;58089;48.752;11.338;2023-12-20T02:40:48;5.73;;;2.30;;
70535;SDS011;58089;48.752;11.338;2023-12-20T02:43:13;7.27;;;2.83;;
70535;SDS011;58089;48.752;11.338;2023-12-20T02:45:38;6.00;;;2.50;;
70535;SDS011;58089;48.752;11.338;2023-12-20T02:48:04;5.23;;;1.93;;
70535;SDS011;58089;48.752;11.338;2023-12-20T02:50:29;6.10;;;2.40;;
70535;SDS011;58089;48.752;11.338;2023-12-20T02:52:54;5.67;;;2.17;;
70535;SDS011;58089;48.752;11.338;2023-12-20T02:55:20;6.67;;;2.27;;
70535;SDS011;58089;48.752;11.338;2023-12-20T02:57:45;5.70;;;1.93;;
70535;SDS011;58089;48.752;11.338;2023-12-20T03:00:10;5.20;;;1.90;;
70535;SDS011;58089;48.752;11.338;2023-12-20T03:02:36;6.00;;;2.00;;
70535;SDS011;58089;48.752;11.338;2023-12-20T03:05:02;5.53;;;1.70;;
70535;SDS011;58089;48.752;11.338;2023-12-20T03:07:27;5.47;;;1.40;;
70535;SDS011;58089;48.752;11.338;2023-12-20T03:09:53;6.33;;;2.10;;
70535;SDS011;58089;48.752;11.338;2023-12-20T03:12:18;5.60;;;2.30;;
70535;SDS011;58089;48.752;11.338;2023-12-20T03:14:44;5.70;;;1.73;;
70535;SDS011;58089;48.752;11.338;2023-12-20T03:17:09;5.47;;;2.27;;
70535;SDS011;58089;48.752;11.338;2023-12-20T03:19:35;5.13;;;2.20;;
70535;SDS011;58089;48.752;11.338;2023-12-20T03:22:00;5.37;;;2.17;;
70535;SDS011;58089;48.752;11.338;2023-12-20T03:24:26;4.87;;;1.80;;
70535;SDS011;58089;48.752;11.338;2023-12-20T03:26:51;5.45;;;2.13;;
70535;SDS011;58089;48.752;11.338;2023-12-20T03:29:17;5.70;;;1.63;;
70535;SDS011;58089;48.752;11.338;2023-12-20T03:31:42;7.97;;;2.33;;
70535;SDS011;58089;48.752;11.338;2023-12-20T03:34:07;6.00;;;2.10;;
70535;SDS011;58089;48.752;11.338;2023-12-20T03:36:32;7.07;;;2.10;;
70535;SDS011;58089;48.752;11.338;2023-12-20T03:38:58;5.63;;;2.33;;
70535;SDS011;58089;48.752;11.338;2023-12-20T03:41:23;6.57;;;2.10;;
70535;SDS011;58089;48.752;11.338;2023-12-20T03:43:48;6.80;;;2.53;;
70535;SDS011;58089;48.752;11.338;2023-12-20T03:46:14;7.47;;;1.70;;
70535;SDS011;58089;48.752;11.338;2023-12-20T03:48:39;6.90;;;2.57;;
70535;SDS011;58089;48.752;11.338;2023-12-20T03:51:04;7.10;;;2.93;;
70535;SDS011;58089;48.752;11.338;2023-12-20T03:53:30;5.97;;;2.30;;
70535;SDS011;58089;48.752;11.338;2023-12-20T03:55:55;6.17;;;2.73;;
70535;SDS011;58089;48.752;11.338;2023-12-20T03:58:20;8.23;;;3.77;;
70535;SDS011;58089;48.752;11.338;2023-12-20T04:00:45;6.63;;;3.10;;
70535;SDS011;58089;48.752;11.338;2023-12-20T04:03:11;6.40;;;2.97;;
70535;SDS011;58089;48.752;11.338;2023-12-20T04:05:39;7.50;;;3.35;;
70535;SDS011;58089;48.752;11.338;2023-12-20T04:08:05;6.45;;;3.00;;
70535;SDS011;58089;48.752;11.338;2023-12-20T04:10:31;8.87;;;3.57;;
70535;SDS011;58089;48.752;11.338;2023-12-20T04:12:56;8.60;;;3.30;;
70535;SDS011;58089;48.752;11.338;2023-12-20T04:15:21;7.90;;;3.17;;
70535;SDS011;58089;48.752;11.338;2023-12-20T04:17:46;8.17;;;3.40;;
70535;SDS011;58089;48.752;11.338;2023-12-20T04:20:12;7.70;;;3.00;;
70535;SDS011;58089;48.752;11.338;2023-12-20T04:22:37;8.13;;;3.40;;
70535;SDS011;58089;48.752;11.338;2023-12-20T04:25:03;8.20;;;3.70;;
70535;SDS011;58089;48.752;11.338;2023-12-20T04:27:28;8.07;;;3.50;;
70535;SDS011;58089;48.752;11.338;2023-12-20T04:29:54;8.00;;;3.63;;
70535;SDS011;58089;48.752;11.338;2023-12-20T04:32:19;7.90;;;3.47;;
70535;SDS011;58089;48.752;11.338;2023-12-20T04:34:44;8.47;;;3.50;;
70535;SDS011;58089;48.752;11.338;2023-12-20T04:37:10;7.23;;;3.40;;
70535;SDS011;58089;48.752;11.338;2023-12-20T04:39:35;8.37;;;3.70;;
70535;SDS011;58089;48.752;11.338;2023-12-20T04:42:00;6.97;;;3.05;;
70535;SDS011;58089;48.752;11.338;2023-12-20T04:44:26;7.73;;;3.60;;
70535;SDS011;58089;48.752;11.338;2023-12-20T04:46:51;6.73;;;3.17;;
70535;SDS011;58089;48.752;11.338;2023-12-20T04:49:17;6.33;;;3.20;;
70535;SDS011;58089;48.752;11.338;2023-12-20T04:51:42;7.67;;;3.80;;
70535;SDS011;58089;48.752;11.338;2023-12-20T04:54:07;8.77;;;2.67;;
70535;SDS011;58089;48.752;11.338;2023-12-20T04:56:33;5.33;;;2.23;;
70535;SDS011;58089;48.752;11.338;2023-12-20T04:58:58;8.37;;;3.13;;
70535;SDS011;58089;48.752;11.338;2023-12-20T05:01:23;5.77;;;2.60;;
70535;SDS011;58089;48.752;11.338;2023-12-20T05:03:48;6.83;;;2.90;;
70535;SDS011;58089;48.752;11.338;2023-12-20T05:06:14;7.10;;;2.40;;
70535;SDS011;58089;48.752;11.338;2023-12-20T05:08:39;5.97;;;2.50;;
70535;SDS011;58089;48.752;11.338;2023-12-20T05:11:05;6.30;;;2.80;;
70535;SDS011;58089;48.752;11.338;2023-12-20T05:13:31;6.50;;;2.80;;
70535;SDS011;58089;48.752;11.338;2023-12-20T05:15:56;5.63;;;2.13;;
70535;SDS011;58089;48.752;11.338;2023-12-20T05:18:21;6.00;;;2.70;;
70535;SDS011;58089;48.752;11.338;2023-12-20T05:20:48;5.80;;;2.33;;
70535;SDS011;58089;48.752;11.338;2023-12-20T05:23:14;5.90;;;2.23;;
70535;SDS011;58089;48.752;11.338;2023-12-20T05:25:40;6.20;;;2.55;;
70535;SDS011;58089;48.752;11.338;2023-12-20T05:28:05;6.17;;;2.60;;
70535;SDS011;58089;48.752;11.338;2023-12-20T05:30:31;6.00;;;2.40;;
70535;SDS011;58089;48.752;11.338;2023-12-20T05:32:56;6.60;;;2.50;;
70535;SDS011;58089;48.752;11.338;2023-12-20T05:35:21;5.80;;;2.20;;
70535;SDS011;58089;48.752;11.338;2023-12-20T05:37:48;5.70;;;2.27;;
70535;SDS011;58089;48.752;11.338;2023-12-20T05:40:14;6.15;;;2.50;;
70535;SDS011;58089;48.752;11.338;2023-12-20T05:42:39;5.93;;;2.40;;
70535;SDS011;58089;48.752;11.338;2023-12-20T05:45:05;6.07;;;3.00;;
70535;SDS011;58089;48.752;11.338;2023-12-20T05:47:30;6.63;;;3.13;;
70535;SDS011;58089;48.752;11.338;2023-12-20T05:49:56;5.70;;;2.87;;
70535;SDS011;58089;48.752;11.338;2023-12-20T05:52:21;8.07;;;3.50;;
70535;SDS011;58089;48.752;11.338;2023-12-20T05:54:47;6.67;;;3.27;;
70535;SDS011;58089;48.752;11.338;2023-12-20T05:57:12;7.03;;;3.28;;
70535;SDS011;58089;48.752;11.338;2023-12-20T05:59:38;7.47;;;3.20;;
70535;SDS011;58089;48.752;11.338;2023-12-20T06:02:03;6.90;;;3.57;;
70535;SDS011;58089;48.752;11.338;2023-12-20T06:04:29;8.80;;;3.70;;
70535;SDS011;58089;48.752;11.338;2023-12-20T06:06:55;8.33;;;3.87;;
70535;SDS011;58089;48.752;11.338;2023-12-20T06:09:20;7.20;;;3.47;;
70535;SDS011;58089;48.752;11.338;2023-12-20T06:11:45;7.67;;;3.53;;
70535;SDS011;58089;48.752;11.338;2023-12-20T06:14:11;6.93;;;3.40;;
70535;SDS011;58089;48.752;11.338;2023-12-20T06:16:36;7.10;;;3.90;;
70535;SDS011;58089;48.752;11.338;2023-12-20T06:19:01;9.43;;;5.10;;
70535;SDS011;58089;48.752;11.338;2023-12-20T06:21:26;7.87;;;4.20;;
70535;SDS011;58089;48.752;11.338;2023-12-20T06:23:52;7.50;;;4.17;;
70535;SDS011;58089;48.752;11.338;2023-12-20T06:26:17;9.20;;;4.43;;
70535;SDS011;58089;48.752;11.338;2023-12-20T06:28:42;9.07;;;4.17;;
70535;SDS011;58089;48.752;11.338;2023-12-20T06:31:08;8.93;;;4.43;;
70535;SDS011;58089;48.752;11.338;2023-12-20T06:33:33;7.13;;;3.87;;
70535;SDS011;58089;48.752;11.338;2023-12-20T06:35:59;6.70;;;3.28;;
70535;SDS011;58089;48.752;11.338;2023-12-20T06:38:24;6.63;;;3.20;;
70535;SDS011;58089;48.752;11.338;2023-12-20T06:40:50;8.23;;;2.77;;
70535;SDS011;58089;48.752;11.338;2023-12-20T06:43:15;8.10;;;3.70;;
70535;SDS011;58089;48.752;11.338;2023-12-20T06:45:40;7.90;;;3.13;;
70535;SDS011;58089;48.752;11.338;2023-12-20T06:48:06;6.63;;;3.42;;
70535;SDS011;58089;48.752;11.338;2023-12-20T06:50:31;7.13;;;3.10;;
70535;SDS011;58089;48.752;11.338;2023-12-20T06:52:56;6.00;;;2.80;;
70535;SDS011;58089;48.752;11.338;2023-12-20T06:55:22;7.20;;;3.10;;
70535;SDS011;58089;48.752;11.338;2023-12-20T06:57:48;7.15;;;2.90;;
70535;SDS011;58089;48.752;11.338;2023-12-20T07:00:13;6.33;;;2.30;;
70535;SDS011;58089;48.752;11.338;2023-12-20T07:02:39;6.07;;;2.45;;
70535;SDS011;58089;48.752;11.338;2023-12-20T07:05:04;6.00;;;2.30;;
70535;SDS011;58089;48.752;11.338;2023-12-20T07:07:30;8.53;;;2.80;;
70535;SDS011;58089;48.752;11.338;2023-12-20T07:09:55;8.70;;;2.37;;
70535;SDS011;58089;48.752;11.338;2023-12-20T07:12:20;5.47;;;2.23;;
70535;SDS011;58089;48.752;11.338;2023-12-20T07:14:46;8.63;;;2.40;;
70535;SDS011;58089;48.752;11.338;2023-12-20T07:17:12;6.67;;;2.60;;
70535;SDS011;58089;48.752;11.338;2023-12-20T07:19:39;6.68;;;3.05;;
70535;SDS011;58089;48.752;11.338;2023-12-20T07:22:05;7.65;;;2.40;;
70535;SDS011;58089;48.752;11.338;2023-12-20T07:24:31;6.35;;;2.78;;
70535;SDS011;58089;48.752;11.338;2023-12-20T07:26:56;5.70;;;2.20;;
70535;SDS011;58089;48.752;11.338;2023-12-20T07:29:21;6.20;;;2.43;;
70535;SDS011;58089;48.752;11.338;2023-12-20T07:31:47;7.20;;;2.57;;
70535;SDS011;58089;48.752;11.338;2023-12-20T07:34:12;7.27;;;3.13;;
70535;SDS011;58089;48.752;11.338;2023-12-20T07:36:37;7.13;;;3.20;;
70535;SDS011;58089;48.752;11.338;2023-12-20T07:39:03;5.80;;;2.23;;
70535;SDS011;58089;48.752;11.338;2023-12-20T07:41:28;7.27;;;2.50;;
70535;SDS011;58089;48.752;11.338;2023-12-20T07:43:53;7.27;;;2.30;;
70535;SDS011;58089;48.752;11.338;2023-12-20T07:46:20;6.00;;;2.53;;
70535;SDS011;58089;48.752;11.338;2023-12-20T07:48:47;7.65;;;3.13;;
70535;SDS011;58089;48.752;11.338;2023-12-20T07:51:13;8.57;;;3.40;;
70535;SDS011;58089;48.752;11.338;2023-12-20T07:53:38;8.02;;;4.10;;
70535;SDS011;58089;48.752;11.338;2023-12-20T07:56:13;10.10;;;5.23;;
70535;SDS011;58089;48.752;11.338;2023-12-20T07:58:41;8.82;;;5.75;;
70535;SDS011;58089;48.752;11.338;2023-12-20T08:01:07;13.33;;;7.07;;
70535;SDS011;58089;48.752;11.338;2023-12-20T08:03:32;11.50;;;6.03;;
70535;SDS011;58089;48.752;11.338;2023-12-20T08:05:57;12.77;;;6.10;;
70535;SDS011;58089;48.752;11.338;2023-12-20T08:08:24;8.55;;;4.03;;
70535;SDS011;58089;48.752;11.338;2023-12-20T08:10:50;8.20;;;3.80;;
70535;SDS011;58089;48.752;11.338;2023-12-20T08:13:15;8.10;;;3.70;;
70535;SDS011;58089;48.752;11.338;2023-12-20T08:15:40;8.80;;;4.78;;
70535;SDS011;58089;48.752;11.338;2023-12-20T08:18:06;7.23;;;3.63;;
70535;SDS011;58089;48.752;11.338;2023-12-20T08:20:31;7.80;;;3.60;;
70535;SDS011;58089;48.752;11.338;2023-12-20T08:22:56;6.90;;;3.33;;
70535;SDS011;58089;48.752;11.338;2023-12-20T08:25:22;6.10;;;2.60;;
70535;SDS011;58089;48.752;11.338;2023-12-20T08:27:47;6.50;;;2.87;;
70535;SDS011;58089;48.752;11.338;2023-12-20T08:30:12;7.03;;;3.57;;
70535;SDS011;58089;48.752;11.338;2023-12-20T08:32:38;8.05;;;3.53;;
70535;SDS011;58089;48.752;11.338;2023-12-20T08:35:03;6.10;;;2.60;;
70535;SDS011;58089;48.752;11.338;2023-12-20T08:37:29;9.65;;;3.15;;
70535;SDS011;58089;48.752;11.338;2023-12-20T08:39:55;7.20;;;3.00;;
70535;SDS011;58089;48.752;11.338;2023-12-20T08:42:21;7.30;;;3.00;;
70535;SDS011;58089;48.752;11.338;2023-12-20T08:44:46;5.97;;;2.92;;
70535;SDS011;58089;48.752;11.338;2023-12-20T08:47:11;7.30;;;2.40;;
70535;SDS011;58089;48.752;11.338;2023-12-20T08:49:38;5.60;;;2.73;;
70535;SDS011;58089;48.752;11.338;2023-12-20T08:52:04;6.20;;;2.80;;
70535;SDS011;58089;48.752;11.338;2023-12-20T08:54:30;5.60;;;2.60;;
70535;SDS011;58089;48.752;11.338;2023-12-20T08:56:55;7.20;;;2.20;;
70535;SDS011;58089;48.752;11.338;2023-12-20T08:59:20;5.50;;;2.70;;
70535;SDS011;58089;48.752;11.338;2023-12-20T09:01:45;8.30;;;3.00;;
70535;SDS011;58089;48.752;11.338;2023-12-20T09:04:11;7.35;;;2.70;;
70535;SDS011;58089;48.752;11.338;2023-12-20T09:06:36;5.27;;;2.50;;
70535;SDS011;58089;48.752;11.338;2023-12-20T09:09:02;5.63;;;2.60;;
70535;SDS011;58089;48.752;11.338;2023-12-20T09:11:27;5.10;;;2.20;;
70535;SDS011;58089;48.752;11.338;2023-12-20T09:13:52;6.70;;;2.70;;
70535;SDS011;58089;48.752;11.338;2023-12-20T09:16:18;5.60;;;2.40;;
70535;SDS011;58089;48.752;11.338;2023-12-20T09:18:43;5.43;;;2.30;;
70535;SDS011;58089;48.752;11.338;2023-12-20T09:21:08;5.65;;;2.22;;
70535;SDS011;58089;48.752;11.338;2023-12-20T09:23:34;4.70;;;1.93;;
70535;SDS011;58089;48.752;11.338;2023-12-20T09:25:59;5.13;;;1.97;;
70535;SDS011;58089;48.752;11.338;2023-12-20T09:28:24;4.60;;;1.70;;
70535;SDS011;58089;48.752;11.338;2023-12-20T09:30:50;4.90;;;1.77;;
70535;SDS011;58089;48.752;11.338;2023-12-20T09:33:15;22.23;;;9.80;;
70535;SDS011;58089;48.752;11.338;2023-12-20T09:35:41;6.78;;;2.60;;
70535;SDS011;58089;48.752;11.338;2023-12-20T09:38:07;5.73;;;2.30;;
70535;SDS011;58089;48.752;11.338;2023-12-20T09:40:32;6.13;;;2.75;;
70535;SDS011;58089;48.752;11.338;2023-12-20T09:43:08;7.30;;;3.57;;
70535;SDS011;58089;48.752;11.338;2023-12-20T09:45:35;5.78;;;2.72;;
70535;SDS011;58089;48.752;11.338;2023-12-20T09:48:00;7.27;;;4.00;;
70535;SDS011;58089;48.752;11.338;2023-12-20T09:50:26;5.68;;;2.53;;
70535;SDS011;58089;48.752;11.338;2023-12-20T09:52:52;5.37;;;2.33;;
70535;SDS011;58089;48.752;11.338;2023-12-20T09:55:19;5.97;;;2.70;;
70535;SDS011;58089;48.752;11.338;2023-12-20T09:57:45;8.68;;;3.40;;
70535;SDS011;58089;48.752;11.338;2023-12-20T10:00:11;7.88;;;5.35;;
70535;SDS011;58089;48.752;11.338;2023-12-20T10:02:38;6.45;;;4.00;;
70535;SDS011;58089;48.752;11.338;2023-12-20T10:05:08;6.82;;;4.18;;
70535;SDS011;58089;48.752;11.338;2023-12-20T10:07:41;7.50;;;4.40;;
70535;SDS011;58089;48.752;11.338;2023-12-20T10:10:06;7.40;;;4.20;;
70535;SDS011;58089;48.752;11.338;2023-12-20T10:12:34;5.20;;;2.72;;
70535;SDS011;58089;48.752;11.338;2023-12-20T10:14:59;5.10;;;2.47;;
70535;SDS011;58089;48.752;11.338;2023-12-20T10:17:24;4.38;;;1.90;;
70535;SDS011;58089;48.752;11.338;2023-12-20T10:19:54;6.30;;;2.55;;
70535;SDS011;58089;48.752;11.338;2023-12-20T10:22:19;4.10;;;1.50;;
70535;SDS011;58089;48.752;11.338;2023-12-20T10:24:45;6.40;;;2.60;;
70535;SDS011;58089;48.752;11.338;2023-12-20T10:27:11;5.50;;;2.60;;
70535;SDS011;58089;48.752;11.338;2023-12-20T10:29:37;5.43;;;1.80;;
70535;SDS011;58089;48.752;11.338;2023-12-20T10:32:21;5.47;;;1.88;;
70535;SDS011;58089;48.752;11.338;2023-12-20T10:34:51;4.17;;;1.60;;
70535;SDS011;58089;48.752;11.338;2023-12-20T10:37:17;3.80;;;1.20;;
70535;SDS011;58089;48.752;11.338;2023-12-20T10:39:42;4.03;;;1.37;;
70535;SDS011;58089;48.752;11.338;2023-12-20T10:42:09;3.87;;;1.17;;
70535;SDS011;58089;48.752;11.338;2023-12-20T10:44:36;3.85;;;1.25;;
70535;SDS011;58089;48.752;11.338;2023-12-20T10:47:01;4.87;;;1.43;;
70535;SDS011;58089;48.752;11.338;2023-12-20T10:49:27;3.92;;;1.15;;
70535;SDS011;58089;48.752;11.338;2023-12-20T10:51:54;3.55;;;1.13;;
70535;SDS011;58089;48.752;11.338;2023-12-20T10:54:19;3.90;;;1.27;;
70535;SDS011;58089;48.752;11.338;2023-12-20T10:56:45;4.13;;;1.40;;
70535;SDS011;58089;48.752;11.338;2023-12-20T10:59:11;4.77;;;1.40;;
70535;SDS011;58089;48.752;11.338;2023-12-20T11:01:36;4.15;;;1.40;;
70535;SDS011;58089;48.752;11.338;2023-12-20T11:04:03;4.82;;;2.13;;
70535;SDS011;58089;48.752;11.338;2023-12-20T11:06:51;3.80;;;1.30;;
70535;SDS011;58089;48.752;11.338;2023-12-20T11:09:22;4.22;;;1.40;;
70535;SDS011;58089;48.752;11.338;2023-12-20T11:12:01;4.13;;;1.52;;
70535;SDS011;58089;48.752;11.338;2023-12-20T11:17:11;4.50;;;1.70;;
70535;SDS011;58089;48.752;11.338;2023-12-20T11:22:27;4.72;;;1.70;;
70535;SDS011;58089;48.752;11.338;2023-12-20T11:24:55;4.40;;;1.63;;
70535;SDS011;58089;48.752;11.338;2023-12-20T11:27:23;3.72;;;1.15;;
70535;SDS011;58089;48.752;11.338;2023-12-20T11:29:52;4.60;;;1.77;;
70535;SDS011;58089;48.752;11.338;2023-12-20T11:34:50;4.00;;;1.30;;
70535;SDS011;58089;48.752;11.338;2023-12-20T11:37:16;4.73;;;1.60;;
70535;SDS011;58089;48.752;11.338;2023-12-20T11:39:42;4.47;;;1.80;;
70535;SDS011;58089;48.752;11.338;2023-12-20T11:42:09;4.13;;;1.60;;
70535;SDS011;58089;48.752;11.338;2023-12-20T11:44:36;4.70;;;1.98;;
70535;SDS011;58089;48.752;11.338;2023-12-20T11:47:01;5.15;;;1.80;;
70535;SDS011;58089;48.752;11.338;2023-12-20T11:49:27;3.93;;;1.30;;
70535;SDS011;58089;48.752;11.338;2023-12-20T11:51:54;4.60;;;1.30;;
70535;SDS011;58089;48.752;11.338;2023-12-20T11:54:20;4.13;;;1.30;;
70535;SDS011;58089;48.752;11.338;2023-12-20T11:56:45;6.72;;;1.55;;
70535;SDS011;58089;48.752;11.338;2023-12-20T11:59:11;3.67;;;1.00;;
70535;SDS011;58089;48.752;11.338;2023-12-20T12:01:36;5.15;;;1.25;;
70535;SDS011;58089;48.752;11.338;2023-12-20T12:04:03;3.70;;;0.80;;
70535;SDS011;58089;48.752;11.338;2023-12-20T12:06:28;4.90;;;1.50;;
70535;SDS011;58089;48.752;11.338;2023-12-20T12:08:54;3.60;;;0.90;;
70535;SDS011;58089;48.752;11.338;2023-12-20T12:11:20;5.20;;;1.10;;
70535;SDS011;58089;48.752;11.338;2023-12-20T12:13:46;4.83;;;1.03;;
70535;SDS011;58089;48.752;11.338;2023-12-20T12:16:11;3.90;;;1.23;;
70535;SDS011;58089;48.752;11.338;2023-12-20T12:18:36;3.80;;;1.10;;
70535;SDS011;58089;48.752;11.338;2023-12-20T12:21:02;3.97;;;1.20;;
70535;SDS011;58089;48.752;11.338;2023-12-20T12:23:27;4.22;;;0.90;;
70535;SDS011;58089;48.752;11.338;2023-12-20T12:25:53;4.13;;;1.00;;
70535;SDS011;58089;48.752;11.338;2023-12-20T12:28:20;4.75;;;0.98;;
70535;SDS011;58089;48.752;11.338;2023-12-20T12:30:58;4.63;;;1.03;;
70535;SDS011;58089;48.752;11.338;2023-12-20T12:33:26;5.60;;;1.20;;
70535;SDS011;58089;48.752;11.338;2023-12-20T12:35:52;4.95;;;1.13;;
70535;SDS011;58089;48.752;11.338;2023-12-20T12:38:21;5.00;;;1.00;;
70535;SDS011;58089;48.752;11.338;2023-12-20T12:40:46;12.27;;;1.30;;
70535;SDS011;58089;48.752;11.338;2023-12-20T12:43:12;6.13;;;1.60;;
70535;SDS011;58089;48.752;11.338;2023-12-20T12:45:38;5.77;;;1.27;;
70535;SDS011;58089;48.752;11.338;2023-12-20T12:48:03;7.47;;;1.03;;
70535;SDS011;58089;48.752;11.338;2023-12-20T12:50:29;4.20;;;0.80;;
70535;SDS011;58089;48.752;11.338;2023-12-20T12:52:55;5.90;;;1.50;;
70535;SDS011;58089;48.752;11.338;2023-12-20T12:55:20;5.60;;;1.03;;
70535;SDS011;58089;48.752;11.338;2023-12-20T12:57:46;6.37;;;1.23;;
70535;SDS011;58089;48.752;11.338;2023-12-20T13:00:11;6.55;;;1.10;;
70535;SDS011;58089;48.752;11.338;2023-12-20T13:02:37;5.43;;;0.80;;
70535;SDS011;58089;48.752;11.338;2023-12-20T13:05:03;5.38;;;0.90;;
70535;SDS011;58089;48.752;11.338;2023-12-20T13:07:29;6.73;;;1.07;;
70535;SDS011;58089;48.752;11.338;2023-12-20T13:09:54;6.90;;;1.50;;
70535;SDS011;58089;48.752;11.338;2023-12-20T13:12:20;3.70;;;0.90;;
70535;SDS011;58089;48.752;11.338;2023-12-20T13:14:46;5.80;;;1.17;;
70535;SDS011;58089;48.752;11.338;2023-12-20T13:17:12;6.35;;;1.52;;
70535;SDS011;58089;48.752;11.338;2023-12-20T13:19:37;5.43;;;0.97;;
70535;SDS011;58089;48.752;11.338;2023-12-20T13:22:03;5.07;;;0.90;;
70535;SDS011;58089;48.752;11.338;2023-12-20T13:24:28;5.78;;;1.08;;
70535;SDS011;58089;48.752;11.338;2023-12-20T13:26:54;5.07;;;0.83;;
70535;SDS011;58089;48.752;11.338;2023-12-20T13:29:20;4.47;;;1.05;;
70535;SDS011;58089;48.752;11.338;2023-12-20T13:31:45;6.10;;;0.70;;
70535;SDS011;58089;48.752;11.338;2023-12-20T13:34:10;6.50;;;1.13;;
70535;SDS011;58089;48.752;11.338;2023-12-20T13:36:36;5.33;;;1.87;;
70535;SDS011;58089;48.752;11.338;2023-12-20T13:39:02;7.20;;;1.30;;
70535;SDS011;58089;48.752;11.338;2023-12-20T13:41:29;6.28;;;1.08;;
70535;SDS011;58089;48.752;11.338;2023-12-20T13:43:55;4.50;;;1.07;;
70535;SDS011;58089;48.752;11.338;2023-12-20T13:46:20;4.20;;;0.83;;
70535;SDS011;58089;48.752;11.338;2023-12-20T13:48:45;4.63;;;1.30;;
70535;SDS011;58089;48.752;11.338;2023-12-20T13:51:11;4.53;;;1.10;;
70535;SDS011;58089;48.752;11.338;2023-12-20T13:53:36;6.13;;;1.80;;
70535;SDS011;58089;48.752;11.338;2023-12-20T13:56:01;8.07;;;1.60;;
70535;SDS011;58089;48.752;11.338;2023-12-20T13:58:27;4.88;;;0.93;;
70535;SDS011;58089;48.752;11.338;2023-12-20T14:00:55;5.13;;;0.90;;
70535;SDS011;58089;48.752;11.338;2023-12-20T14:03:20;6.07;;;0.80;;
70535;SDS011;58089;48.752;11.338;2023-12-20T14:05:45;6.70;;;1.30;;
70535;SDS011;58089;48.752;11.338;2023-12-20T14:08:11;6.10;;;0.87;;
70535;SDS011;58089;48.752;11.338;2023-12-20T14:10:36;6.60;;;0.97;;
70535;SDS011;58089;48.752;11.338;2023-12-20T14:13:01;6.70;;;0.60;;
70535;SDS011;58089;48.752;11.338;2023-12-20T14:15:27;6.00;;;1.00;;
70535;SDS011;58089;48.752;11.338;2023-12-20T14:17:52;5.60;;;1.10;;
70535;SDS011;58089;48.752;11.338;2023-12-20T14:20:18;7.37;;;1.10;;
70535;SDS011;58089;48.752;11.338;2023-12-20T14:22:43;7.23;;;0.70;;
70535;SDS011;58089;48.752;11.338;2023-12-20T14:25:13;4.78;;;0.93;;
70535;SDS011;58089;48.752;11.338;2023-12-20T14:27:42;4.87;;;0.77;;
70535;SDS011;58089;48.752;11.338;2023-12-20T14:30:08;5.35;;;0.80;;
70535;SDS011;58089;48.752;11.338;2023-12-20T14:32:34;6.13;;;0.60;;